Terminal Aerodrome Forecast
Issued by NWS Greer, SC

Home | Current Version | Previous Version | Text Only | Print | Product List | Glossary On
Versions: 1 2 3 4 5 6 7 8 9 10 11 12 13 14 15 16 17 18 19 20 21 22 23 24 25 26 27 28 29 30 31 32 33 34 35 36 37 38 39 40 41 42 43
000
FTUS42 KGSP 260531
TAFCLT
TAF
KCLT 260531Z 2606/2706 17007KT P6SM SCT060 OVC250
     FM261000 18004KT P6SM OVC018
     FM261400 19005KT P6SM BKN024
     FM261600 19006KT P6SM BKN050
     FM262200 19006KT P6SM BKN060 PROB30 2622/2704 4SM TSRA
      BKN040CB=

USA.gov is the U.S. government's official web portal to all federal, state and local government web resources and services.